Airport View

Enter AWOS ICAO identifier for current METAR.

ex. KFNL

KPMP 210753Z AUTO 08013KT 7SM -RA FEW075 BKN110 24/23 A2992 RMK AO2 PK WND 10035/0708 SLP131 T02440228 PNO $

21 Oct 2020 08:11

Phone: 954-783-3720

Other Area AWOS: KFXE - KBCT - KFLL - KHWO

TAF KFXE 210520Z 2106/2206 07010G20KT P6SM VCSH SCT015 BKN035 TEMPO 2106/2109 VRB15G25KT 5SM SHRA BKN025 FM211400 10015G25KT P6SM VCSH SCT020 BKN035 FM220200 08010KT P6SM VCSH SCT025 BKN035